Time;durP1;ratioP1;P1;durP2;ratioP2;P2;SDS_P1;SDS_P2;PMS_P1;PMS_P2;Temp;Humidity;BMP_temperature;BMP_pressure;BME280_temperature;BME280_humidity;BME280_pressure;Samples;Min_cycle;Max_cycle;Signal;HPM_P1;HPM_P2
2022/07/29 00:02:02;;;;;;;4.07;1.25;;;;;;;18.07;54.11;101580.91;5096782;28;20027;-78
2022/07/29 00:04:27;;;;;;;6.32;1.60;;;;;;;18.02;53.47;101572.44;5095626;28;20039;-78
2022/07/29 00:06:53;;;;;;;4.25;1.70;;;;;;;18.04;53.70;101581.22;5097132;28;20028;-78
2022/07/29 00:09:18;;;;;;;2.70;1.47;;;;;;;18.00;54.10;101595.09;5097028;28;20141;-79
2022/07/29 00:11:43;;;;;;;4.75;1.50;;;;;;;18.02;54.26;101591.28;5096687;28;20817;-78
2022/07/29 00:14:09;;;;;;;7.50;1.57;;;;;;;17.92;54.80;101588.63;5095544;28;20024;-79
2022/07/29 00:16:34;;;;;;;3.13;1.50;;;;;;;17.94;54.60;101577.72;5096472;28;20301;-78
2022/07/29 00:18:59;;;;;;;6.20;1.60;;;;;;;17.91;54.26;101583.38;5097033;28;20024;-78
2022/07/29 00:21:25;;;;;;;4.88;1.80;;;;;;;17.93;54.55;101582.22;5091576;28;20398;-79
2022/07/29 00:23:51;;;;;;;3.88;1.50;;;;;;;17.91;55.72;101583.38;5096779;28;20035;-78
2022/07/29 00:26:16;;;;;;;4.05;1.52;;;;;;;17.89;55.17;101580.84;5078460;28;20387;-79
2022/07/29 00:28:41;;;;;;;3.35;1.40;;;;;;;17.84;55.55;101580.41;5096354;28;20032;-78
2022/07/29 00:31:07;;;;;;;4.30;1.80;;;;;;;17.84;55.51;101582.25;5078424;28;20429;-78
2022/07/29 00:33:33;;;;;;;4.15;1.83;;;;;;;17.80;55.57;101580.84;5097175;28;20020;-78
2022/07/29 00:35:58;;;;;;;3.92;1.65;;;;;;;17.83;55.33;101597.50;5096971;28;20067;-78
2022/07/29 00:38:24;;;;;;;4.05;1.90;;;;;;;17.85;55.29;101594.69;5096142;28;20020;-78
2022/07/29 00:40:49;;;;;;;4.85;1.65;;;;;;;17.84;55.15;101593.84;5096730;28;20032;-78
2022/07/29 00:43:16;;;;;;;3.95;1.70;;;;;;;17.80;55.33;101600.50;5096161;28;20356;-78
2022/07/29 00:45:42;;;;;;;8.95;1.70;;;;;;;17.78;55.00;101610.53;5096819;28;20028;-78
2022/07/29 00:48:10;;;;;;;4.00;1.77;;;;;;;17.74;55.46;101620.75;5095919;28;20444;-78
2022/07/29 00:50:36;;;;;;;3.37;1.60;;;;;;;17.70;55.53;101616.66;5097172;28;20450;-78
2022/07/29 00:53:03;;;;;;;4.65;1.58;;;;;;;17.64;56.09;101613.72;5110870;22;20051;-48
2022/07/29 00:55:28;;;;;;;8.70;1.77;;;;;;;17.62;55.76;101604.94;5073279;28;20036;-49
2022/07/29 00:57:55;;;;;;;4.75;1.58;;;;;;;17.60;56.69;101601.56;5072744;28;20032;-49
2022/07/29 01:00:24;;;;;;;3.13;1.45;;;;;;;17.60;57.58;101588.13;5073449;28;20170;-49
2022/07/29 01:02:50;;;;;;;3.80;1.80;;;;;;;17.57;57.82;101586.59;5070914;28;20105;-49
2022/07/29 01:05:17;;;;;;;3.88;1.90;;;;;;;17.54;58.68;101584.19;5058632;28;20013;-49
2022/07/29 01:07:45;;;;;;;5.80;1.90;;;;;;;17.56;59.72;101572.28;5073217;28;20024;-49
2022/07/29 01:10:12;;;;;;;2.15;1.70;;;;;;;17.56;60.05;101558.84;5072235;28;20033;-49
2022/07/29 01:12:39;;;;;;;2.83;1.70;;;;;;;17.50;60.44;101551.41;5072551;28;20474;-49
2022/07/29 01:15:07;;;;;;;4.78;1.80;;;;;;;17.51;59.05;101549.56;5072589;28;20040;-48
2022/07/29 01:17:57;;;;;;;5.43;1.98;;;;;;;17.49;58.61;101538.97;5073987;28;20106;-50
2022/07/29 01:20:40;;;;;;;5.07;1.77;;;;;;;17.47;59.36;101537.41;5064773;28;20108;-48
2022/07/29 01:23:13;;;;;;;3.40;1.63;;;;;;;17.43;59.00;101519.91;5074317;28;20481;-48
2022/07/29 01:25:58;;;;;;;4.63;1.88;;;;;;;17.35;58.29;101517.94;5073630;28;20032;-48
2022/07/29 01:28:52;;;;;;;3.40;1.50;;;;;;;17.31;58.21;101509.31;5073509;28;20059;-49
2022/07/29 01:31:40;;;;;;;2.15;1.52;;;;;;;17.24;58.89;101497.47;5074279;28;20028;-51
2022/07/29 01:34:08;;;;;;;3.88;1.77;;;;;;;17.22;59.31;101498.59;5074418;28;20036;-48
2022/07/29 01:36:56;;;;;;;5.00;2.17;;;;;;;17.19;58.98;101494.38;5073020;28;20090;-49
2022/07/29 01:39:27;;;;;;;6.07;2.23;;;;;;;17.18;58.59;101496.19;5059341;28;20439;-49
2022/07/29 01:42:17;;;;;;;5.25;2.10;;;;;;;17.20;58.18;101499.63;5073896;28;20031;-52
2022/07/29 01:45:05;;;;;;;3.42;1.95;;;;;;;17.15;58.37;101507.25;5073096;28;20044;-52
2022/07/29 01:47:49;;;;;;;3.80;2.00;;;;;;;17.10;58.94;101495.25;5063247;28;20051;-51
2022/07/29 01:50:17;;;;;;;3.38;2.10;;;;;;;17.02;61.00;101498.66;5074460;28;20062;-50
2022/07/29 01:53:05;;;;;;;8.70;2.30;;;;;;;17.07;59.34;101500.91;5083117;28;20133;-49
2022/07/29 01:55:34;;;;;;;5.88;1.95;;;;;;;16.98;60.93;101503.44;5075682;28;20016;-49
2022/07/29 01:58:02;;;;;;;2.55;2.20;;;;;;;16.96;60.40;101515.34;5093660;28;20047;-49
2022/07/29 02:00:29;;;;;;;6.13;2.05;;;;;;;16.98;60.25;101505.28;5075481;28;20075;-48
2022/07/29 02:02:56;;;;;;;4.82;2.00;;;;;;;16.95;60.61;101508.25;5092942;28;20039;-51
2022/07/29 02:05:23;;;;;;;4.93;2.05;;;;;;;16.95;60.23;101505.56;5093103;28;20031;-49
2022/07/29 02:07:52;;;;;;;4.40;1.65;;;;;;;16.92;60.45;101497.81;5093492;28;20027;-50
2022/07/29 02:10:21;;;;;;;3.20;1.80;;;;;;;16.91;60.81;101493.44;5092402;28;20081;-49
2022/07/29 02:12:49;;;;;;;3.83;1.77;;;;;;;16.88;60.70;101485.69;5092909;28;20274;-49
2022/07/29 02:15:16;;;;;;;4.78;1.90;;;;;;;16.89;61.26;101488.22;5092342;28;20035;-48
2022/07/29 02:17:45;;;;;;;2.90;1.70;;;;;;;16.88;60.49;101496.41;5092693;28;20031;-50
2022/07/29 02:20:11;;;;;;;;;;;;;;;16.99;58.82;101493.59;5093918;28;20081;-48
2022/07/29 02:22:38;;;;;;;3.67;2.00;;;;;;;16.87;60.87;101500.06;5093358;28;19912;-52
2022/07/29 02:25:06;;;;;;;2.95;1.90;;;;;;;16.87;60.84;101483.97;5093535;28;20016;-52
2022/07/29 02:27:34;;;;;;;5.38;2.30;;;;;;;16.86;60.71;101479.63;5094087;28;20032;-49
2022/07/29 02:30:01;;;;;;;6.55;2.38;;;;;;;16.85;61.05;101477.91;5075734;28;20031;-50
2022/07/29 02:32:28;;;;;;;5.82;2.13;;;;;;;16.83;61.46;101489.59;5094663;28;20081;-51
2022/07/29 02:34:54;;;;;;;8.07;2.60;;;;;;;16.81;61.66;101491.56;5094391;28;20034;-51
2022/07/29 02:37:21;;;;;;;7.00;1.90;;;;;;;16.81;61.22;101491.56;5094284;28;20529;-50
2022/07/29 02:39:48;;;;;;;6.13;2.00;;;;;;;16.84;61.04;101487.78;5094565;28;20062;-48
2022/07/29 02:42:17;;;;;;;4.30;1.95;;;;;;;16.84;61.56;101482.41;5094237;28;20024;-49
2022/07/29 02:44:43;;;;;;;3.58;2.08;;;;;;;16.85;61.31;101481.44;5094318;28;20032;-48
2022/07/29 02:47:18;;;;;;;4.30;2.10;;;;;;;16.83;61.50;101478.84;5094096;28;20099;-47
2022/07/29 02:50:09;;;;;;;10.35;2.38;;;;;;;16.83;60.72;101480.72;5093728;28;20032;-50
2022/07/29 02:52:47;;;;;;;3.40;2.03;;;;;;;16.82;61.53;101476.34;5084554;28;20055;-49
2022/07/29 02:55:12;;;;;;;5.73;1.93;;;;;;;16.82;62.93;101487.91;5079392;28;20024;-48
2022/07/29 02:57:57;;;;;;;6.17;2.50;;;;;;;16.76;62.93;101483.13;5075336;28;20355;-47
2022/07/29 03:00:27;;;;;;;5.80;2.20;;;;;;;16.73;63.55;101487.91;5093699;28;20105;-49
2022/07/29 03:02:54;;;;;;;2.78;2.10;;;;;;;16.72;63.66;101495.13;5092987;28;20496;-47
2022/07/29 03:05:21;;;;;;;4.82;2.20;;;;;;;16.69;63.52;101491.88;5093556;28;20386;-49
2022/07/29 03:07:55;;;;;;;2.67;1.95;;;;;;;16.66;63.69;101490.31;5094031;28;20024;-48
2022/07/29 03:10:21;;;;;;;5.18;2.33;;;;;;;16.62;64.39;101507.66;5093715;28;20040;-48
2022/07/29 03:12:47;;;;;;;3.90;2.28;;;;;;;16.63;64.43;101507.53;5093793;28;20050;-48
2022/07/29 03:15:13;;;;;;;5.43;2.47;;;;;;;16.62;64.00;101505.00;5093010;28;20078;-48
2022/07/29 03:17:39;;;;;;;4.72;2.10;;;;;;;16.61;64.45;101501.47;5093081;28;20020;-48
2022/07/29 03:20:07;;;;;;;4.60;2.35;;;;;;;16.61;64.98;101504.16;5093677;28;20027;-50
2022/07/29 03:22:32;;;;;;;5.53;2.28;;;;;;;16.61;64.08;101504.16;5093518;28;20020;-49
2022/07/29 03:25:06;;;;;;;2.70;2.40;;;;;;;16.58;65.18;101488.34;5092338;28;20473;-49
2022/07/29 03:27:32;;;;;;;8.68;2.90;;;;;;;16.58;65.21;101487.50;5096164;28;20036;-50
2022/07/29 03:29:57;;;;;;;8.38;2.28;;;;;;;16.56;64.75;101490.31;5097511;28;20027;-49
2022/07/29 03:32:22;;;;;;;6.18;3.10;;;;;;;16.55;64.73;101479.72;5096866;28;20120;-49
2022/07/29 03:34:47;;;;;;;4.50;2.30;;;;;;;16.54;64.65;101486.94;5097009;28;20023;-49
2022/07/29 03:37:13;;;;;;;5.20;2.50;;;;;;;16.51;64.65;101486.38;5096864;28;20298;-51
2022/07/29 03:39:41;;;;;;;5.72;2.30;;;;;;;16.46;64.47;101487.63;5097099;28;20061;-49
2022/07/29 03:42:10;;;;;;;4.78;2.30;;;;;;;16.46;64.39;101489.47;5070940;28;20032;-51
2022/07/29 03:44:36;;;;;;;4.70;2.20;;;;;;;16.44;64.70;101481.56;5091807;28;20024;-51
2022/07/29 03:47:06;;;;;;;7.63;2.50;;;;;;;16.45;64.09;101485.97;5096681;28;20023;-49
2022/07/29 03:49:33;;;;;;;3.25;2.00;;;;;;;16.47;63.94;101483.13;5095073;28;20081;-49
2022/07/29 03:51:59;;;;;;;6.07;2.03;;;;;;;16.43;64.33;101492.44;5096081;28;20120;-49
2022/07/29 03:54:25;;;;;;;10.57;2.30;;;;;;;16.40;64.68;101496.25;5095517;28;20478;-49
2022/07/29 03:56:52;;;;;;;5.40;2.28;;;;;;;16.38;64.97;101487.47;5096330;28;20080;-50
2022/07/29 03:59:20;;;;;;;7.13;2.80;;;;;;;16.29;65.06;101477.63;5096279;28;20106;-47
2022/07/29 04:01:46;;;;;;;11.30;2.47;;;;;;;16.30;65.42;101491.84;5095707;28;20028;-50
2022/07/29 04:04:12;;;;;;;8.07;2.55;;;;;;;16.29;65.13;101485.66;5095028;28;20036;-49
2022/07/29 04:06:41;;;;;;;6.72;2.60;;;;;;;16.22;65.50;101492.53;5095220;28;20020;-48
2022/07/29 04:09:07;;;;;;;9.50;2.38;;;;;;;16.23;64.88;101483.53;5095452;28;20035;-50
2022/07/29 04:11:34;;;;;;;3.30;2.17;;;;;;;16.20;65.01;101471.22;5095229;28;20089;-48
2022/07/29 04:13:59;;;;;;;6.03;2.05;;;;;;;16.18;64.81;101473.22;5095569;28;20039;-48
2022/07/29 04:16:24;;;;;;;4.30;2.03;;;;;;;16.20;65.19;101471.22;5096117;28;20028;-50
2022/07/29 04:18:49;;;;;;;7.95;2.58;;;;;;;16.08;65.66;101465.16;5095445;28;20036;-50
2022/07/29 04:21:15;;;;;;;5.07;2.13;;;;;;;16.10;65.70;101467.69;5077602;28;20096;-48
2022/07/29 04:23:40;;;;;;;5.90;2.07;;;;;;;16.08;65.27;101467.84;5095355;28;20300;-50
2022/07/29 04:26:09;;;;;;;5.03;2.50;;;;;;;16.00;66.18;101466.84;5076046;28;20289;-47
2022/07/29 04:28:34;;;;;;;4.30;2.38;;;;;;;15.94;66.80;101468.25;5093504;28;20028;-49
2022/07/29 04:31:00;;;;;;;10.68;2.90;;;;;;;15.93;66.44;101469.22;5092710;28;20412;-47
2022/07/29 04:33:25;;;;;;;5.03;2.20;;;;;;;15.93;66.72;101473.75;5093467;28;20020;-49
2022/07/29 04:35:51;;;;;;;4.32;2.47;;;;;;;15.88;67.41;101484.84;5093306;28;20028;-49
2022/07/29 04:38:16;;;;;;;4.93;2.67;;;;;;;15.89;67.53;101486.56;5091998;28;20028;-48
2022/07/29 04:40:42;;;;;;;4.07;2.40;;;;;;;15.88;67.47;101492.91;5093753;28;20032;-50
2022/07/29 04:43:07;;;;;;;5.35;2.15;;;;;;;15.88;68.00;101496.41;5093773;28;20040;-48
2022/07/29 04:45:32;;;;;;;3.72;2.30;;;;;;;15.88;68.62;101500.94;5093083;28;20032;-48
2022/07/29 04:47:58;;;;;;;6.07;2.40;;;;;;;15.89;68.63;101513.34;5093639;28;20120;-50
2022/07/29 04:50:23;;;;;;;5.30;2.70;;;;;;;15.86;68.33;101514.47;5093674;28;20059;-48
2022/07/29 04:52:49;;;;;;;4.65;2.45;;;;;;;15.87;68.70;101515.28;5092576;28;20044;-49
2022/07/29 04:55:14;;;;;;;7.78;2.80;;;;;;;15.89;68.70;101516.03;5093009;28;20028;-48
2022/07/29 04:57:40;;;;;;;8.68;3.00;;;;;;;15.92;68.81;101513.09;5091395;28;20032;-48
2022/07/29 05:00:06;;;;;;;7.25;3.15;;;;;;;15.90;68.90;101529.28;5073738;28;20033;-48
2022/07/29 05:02:32;;;;;;;7.53;3.10;;;;;;;15.90;69.01;101533.78;5091699;28;20039;-48
2022/07/29 05:04:57;;;;;;;8.98;2.90;;;;;;;15.92;68.66;101526.47;5093330;28;20153;-47
2022/07/29 05:07:23;;;;;;;9.70;3.40;;;;;;;15.94;68.93;101534.34;5091735;28;20031;-47
2022/07/29 05:09:48;;;;;;;5.85;2.80;;;;;;;15.94;68.80;101531.69;5074285;28;20024;-48
2022/07/29 05:12:14;;;;;;;5.65;2.78;;;;;;;15.89;69.10;101540.13;5092750;28;20032;-48
2022/07/29 05:14:39;;;;;;;8.68;3.28;;;;;;;15.88;69.30;101539.28;5092506;28;20099;-48
2022/07/29 05:17:05;;;;;;;13.13;3.40;;;;;;;15.89;69.21;101532.94;5093148;28;20036;-49
2022/07/29 05:19:31;;;;;;;8.60;3.17;;;;;;;15.91;69.55;101532.81;5093116;28;20034;-48
2022/07/29 05:21:56;;;;;;;5.32;2.90;;;;;;;15.90;69.40;101545.38;5063910;28;20466;-47
2022/07/29 05:24:22;;;;;;;8.18;3.30;;;;;;;15.91;69.74;101539.00;5090008;28;20115;-49
2022/07/29 05:26:47;;;;;;;8.35;3.92;;;;;;;15.94;69.07;101542.38;5092298;28;20140;-49
2022/07/29 05:29:12;;;;;;;12.60;3.40;;;;;;;15.96;69.28;101545.81;5092429;28;20039;-49
2022/07/29 05:31:37;;;;;;;6.07;2.97;;;;;;;15.96;69.04;101535.94;5091799;28;20707;-47
2022/07/29 05:34:03;;;;;;;5.22;3.33;;;;;;;15.96;69.28;101538.59;5091908;28;20496;-47
2022/07/29 05:36:28;;;;;;;9.88;3.30;;;;;;;15.96;69.64;101537.78;5091655;28;20032;-50
2022/07/29 05:38:53;;;;;;;5.57;3.28;;;;;;;15.98;69.28;101541.16;5090122;28;20040;-49
2022/07/29 05:41:20;;;;;;;7.70;3.40;;;;;;;15.93;70.08;101530.84;5091595;28;20028;-50
2022/07/29 05:43:45;;;;;;;5.53;3.42;;;;;;;15.96;69.61;101540.44;5092020;28;20032;-47
2022/07/29 05:46:11;;;;;;;6.85;4.25;;;;;;;15.92;70.58;101542.56;5091298;28;20121;-48
2022/07/29 05:48:36;;;;;;;7.35;3.38;;;;;;;15.97;70.18;101534.97;5091181;28;20039;-48
2022/07/29 05:51:01;;;;;;;5.90;3.38;;;;;;;15.99;70.35;101532.97;5091344;28;20057;-49
2022/07/29 05:53:27;;;;;;;5.88;4.13;;;;;;;16.02;69.86;101540.75;5091388;28;20051;-48
2022/07/29 05:55:52;;;;;;;4.97;3.78;;;;;;;16.08;69.62;101534.81;5090491;28;20039;-48
2022/07/29 05:58:18;;;;;;;8.40;3.85;;;;;;;16.09;69.50;101535.69;5092036;28;20485;-48
2022/07/29 06:00:44;;;;;;;5.03;3.53;;;;;;;16.11;70.03;101541.75;5094110;28;20055;-48
2022/07/29 06:03:09;;;;;;;7.53;3.67;;;;;;;16.19;69.91;101539.25;5091960;28;20028;-49
2022/07/29 06:05:35;;;;;;;4.70;3.50;;;;;;;16.26;69.34;101542.22;5092841;28;20030;-51
2022/07/29 06:08:00;;;;;;;9.45;4.05;;;;;;;16.32;69.98;101539.00;5093076;28;20420;-49
2022/07/29 06:10:26;;;;;;;6.55;3.90;;;;;;;16.37;69.11;101539.44;5091901;28;20024;-47
2022/07/29 06:12:52;;;;;;;8.27;3.72;;;;;;;16.48;68.79;101533.06;5088161;28;20031;-47
2022/07/29 06:15:17;;;;;;;8.75;3.50;;;;;;;16.62;68.88;101542.53;5078591;28;20028;-47
2022/07/29 06:17:43;;;;;;;6.82;3.72;;;;;;;16.67;68.24;101548.34;5078908;28;20037;-49
2022/07/29 06:20:09;;;;;;;6.30;3.47;;;;;;;16.75;68.05;101543.13;5083442;28;20024;-51
2022/07/29 06:22:34;;;;;;;7.63;3.90;;;;;;;16.84;68.12;101546.81;5079274;28;20047;-48
2022/07/29 06:25:01;;;;;;;4.70;3.70;;;;;;;16.87;67.60;101538.50;5091300;28;20024;-48
2022/07/29 06:27:26;;;;;;;5.93;4.10;;;;;;;16.88;67.51;101542.88;5082576;28;20032;-48
2022/07/29 06:29:51;;;;;;;7.80;3.90;;;;;;;16.93;66.91;101537.09;5074072;28;20024;-48
2022/07/29 06:32:16;;;;;;;5.67;4.10;;;;;;;16.94;67.25;101546.84;5086929;28;20283;-49
2022/07/29 06:34:42;;;;;;;10.73;3.80;;;;;;;16.93;67.53;101548.66;5075711;28;20652;-49
2022/07/29 06:37:08;;;;;;;6.20;3.60;;;;;;;16.97;66.89;101549.22;5079140;28;20335;-47
2022/07/29 06:39:36;;;;;;;4.85;3.60;;;;;;;17.00;66.80;101547.13;5079269;28;20036;-49
2022/07/29 06:42:01;;;;;;;8.27;3.80;;;;;;;17.05;67.31;101546.66;5075138;28;20028;-49
2022/07/29 06:44:26;;;;;;;5.75;3.83;;;;;;;17.06;66.90;101550.22;5079411;28;20119;-47
2022/07/29 06:46:52;;;;;;;9.03;4.33;;;;;;;17.08;66.61;101558.97;5088171;28;20093;-48
2022/07/29 06:49:18;;;;;;;8.18;3.60;;;;;;;17.11;67.19;101553.31;5083190;28;20295;-48
2022/07/29 06:51:43;;;;;;;9.65;4.28;;;;;;;17.12;67.34;101555.00;5083624;28;20047;-48
2022/07/29 06:54:08;;;;;;;10.43;3.90;;;;;;;17.15;66.66;101552.88;5088882;28;20416;-50
2022/07/29 06:56:36;;;;;;;5.63;3.55;;;;;;;17.17;66.14;101566.16;5085751;28;20278;-49
2022/07/29 06:59:02;;;;;;;6.63;3.45;;;;;;;17.21;66.79;101559.50;5086642;28;20545;-49
2022/07/29 07:01:27;;;;;;;10.73;3.83;;;;;;;17.27;66.54;101566.13;5090388;28;20134;-51
2022/07/29 07:03:52;;;;;;;6.25;4.63;;;;;;;17.30;66.95;101561.34;5092762;28;20024;-50
2022/07/29 07:06:18;;;;;;;8.63;3.83;;;;;;;17.33;66.60;101560.19;5085384;28;20024;-50
2022/07/29 07:08:43;;;;;;;7.72;4.22;;;;;;;17.42;65.99;101562.03;5092720;28;20281;-48
2022/07/29 07:11:09;;;;;;;10.55;4.40;;;;;;;17.61;65.48;101566.47;5095326;28;20107;-48
2022/07/29 07:13:34;;;;;;;6.00;4.70;;;;;;;17.68;65.67;101569.44;5095398;28;20040;-48
2022/07/29 07:16:01;;;;;;;6.10;4.13;;;;;;;17.78;64.94;101580.16;5094715;28;20024;-47
2022/07/29 07:18:26;;;;;;;12.18;4.20;;;;;;;18.06;64.64;101570.31;5096010;28;20419;-48
2022/07/29 07:20:51;;;;;;;6.13;4.20;;;;;;;18.29;64.23;101571.59;5095887;28;20020;-46
2022/07/29 07:23:17;;;;;;;10.13;3.90;;;;;;;18.56;63.80;101577.09;5095473;28;20020;-46
2022/07/29 07:25:42;;;;;;;8.98;3.78;;;;;;;18.83;62.74;101576.22;5095673;28;20308;-50
2022/07/29 07:28:08;;;;;;;6.95;3.90;;;;;;;18.99;60.97;101567.44;5095734;28;20024;-50
2022/07/29 07:30:33;;;;;;;8.82;3.90;;;;;;;19.22;61.25;101576.72;5095330;28;20024;-46
2022/07/29 07:32:59;;;;;;;7.63;3.87;;;;;;;19.48;60.82;101572.34;5095658;28;20016;-48
2022/07/29 07:35:26;;;;;;;4.68;3.42;;;;;;;19.85;59.36;101566.72;5095668;28;20266;-47
2022/07/29 07:37:51;;;;;;;7.45;3.53;;;;;;;20.23;58.64;101567.19;5094256;28;20024;-50
2022/07/29 07:40:16;;;;;;;10.98;3.80;;;;;;;20.43;56.83;101566.91;5095681;28;20480;-49
2022/07/29 07:42:42;;;;;;;7.03;3.80;;;;;;;20.80;56.39;101571.06;5076299;28;20137;-48
2022/07/29 07:45:11;;;;;;;7.40;3.25;;;;;;;20.97;55.24;101567.38;5094925;28;20337;-48
2022/07/29 07:47:37;;;;;;;;;;;;;;;21.09;57.52;101565.16;5094820;28;20085;-49
2022/07/29 07:50:07;;;;;;;5.45;3.20;;;;;;;21.11;55.62;101565.00;5095359;28;19908;-48
2022/07/29 07:52:33;;;;;;;6.88;3.25;;;;;;;21.49;55.06;101571.56;5072758;28;21451;-51
2022/07/29 07:54:59;;;;;;;4.05;2.92;;;;;;;21.73;54.18;101564.41;5081195;28;20020;-47
2022/07/29 07:57:24;;;;;;;5.30;3.13;;;;;;;22.10;53.76;101571.03;5085637;28;20020;-49
2022/07/29 07:59:49;;;;;;;4.60;2.95;;;;;;;22.35;52.49;101569.94;5094715;28;20112;-49
2022/07/29 08:02:14;;;;;;;5.22;3.08;;;;;;;22.70;51.19;101567.69;5083462;28;20012;-49
2022/07/29 08:04:40;;;;;;;4.80;2.72;;;;;;;23.01;50.63;101558.63;5092627;28;20392;-48
2022/07/29 08:07:07;;;;;;;8.82;3.47;;;;;;;23.14;50.62;101574.31;5093847;28;20017;-48
2022/07/29 08:09:34;;;;;;;5.85;2.78;;;;;;;23.37;48.90;101571.56;5089831;28;20588;-48
2022/07/29 08:12:02;;;;;;;7.30;2.80;;;;;;;23.63;47.93;101567.56;5093539;28;20031;-50
2022/07/29 08:14:27;;;;;;;4.70;2.78;;;;;;;23.97;47.97;101566.19;5090974;28;20039;-49
2022/07/29 08:16:53;;;;;;;7.93;3.30;;;;;;;23.90;47.14;101559.81;5094418;28;20393;-49
2022/07/29 08:19:18;;;;;;;9.65;2.83;;;;;;;24.22;47.36;101565.88;5087642;28;20036;-49
2022/07/29 08:21:43;;;;;;;7.83;3.17;;;;;;;24.24;45.88;101575.50;5093310;28;20077;-49
2022/07/29 08:26:53;;;;;;;10.02;3.88;;;;;;;24.64;45.44;101569.72;5089980;28;20867;-50
2022/07/29 08:29:18;;;;;;;6.23;2.80;;;;;;;24.84;44.06;101575.34;5084798;28;20099;-49
2022/07/29 08:31:43;;;;;;;9.05;2.95;;;;;;;25.14;44.07;101578.75;5093348;28;20293;-47
2022/07/29 08:34:09;;;;;;;6.95;3.20;;;;;;;25.42;43.49;101576.06;5094183;28;20377;-49
2022/07/29 08:36:34;;;;;;;5.40;3.13;;;;;;;25.75;43.51;101578.16;5097752;28;20107;-49
2022/07/29 08:39:00;;;;;;;6.07;2.95;;;;;;;25.92;43.11;101578.66;5089220;28;20034;-49
2022/07/29 08:41:26;;;;;;;7.50;3.50;;;;;;;26.02;43.23;101581.88;5083757;28;20044;-49
2022/07/29 08:43:52;;;;;;;6.13;3.05;;;;;;;26.34;42.58;101582.22;5082471;28;20035;-53
2022/07/29 08:46:19;;;;;;;4.80;2.90;;;;;;;26.47;41.04;101578.72;5080321;28;20060;-49
2022/07/29 08:48:45;;;;;;;5.88;3.22;;;;;;;26.58;41.15;101580.00;5082537;28;20017;-52
2022/07/29 08:51:15;;;;;;;5.47;2.60;;;;;;;27.05;40.74;101585.53;5082485;28;20024;-51
2022/07/29 08:53:42;;;;;;;7.80;2.83;;;;;;;27.03;39.53;101579.44;5093321;28;20058;-49
2022/07/29 08:56:12;;;;;;;9.20;2.85;;;;;;;27.20;39.54;101578.00;5086815;28;20044;-50
2022/07/29 08:58:39;;;;;;;5.07;2.78;;;;;;;27.41;39.10;101584.28;5086490;28;20089;-48
2022/07/29 09:01:04;;;;;;;6.82;2.78;;;;;;;27.34;37.53;101584.28;5084785;28;20023;-52
2022/07/29 09:03:32;;;;;;;5.28;2.50;;;;;;;27.73;36.34;101570.78;5089546;28;20496;-50
2022/07/29 09:06:02;;;;;;;4.43;2.53;;;;;;;28.04;37.75;101567.34;5092845;28;20493;-49
2022/07/29 09:08:28;;;;;;;10.05;3.05;;;;;;;28.10;36.93;101571.13;5093605;28;20120;-52
2022/07/29 09:10:55;;;;;;;6.90;2.70;;;;;;;28.20;37.22;101575.06;5091771;28;20099;-52
2022/07/29 09:13:22;;;;;;;8.53;3.30;;;;;;;28.45;37.35;101576.22;5093390;28;20028;-53
2022/07/29 09:15:47;;;;;;;7.43;2.58;;;;;;;28.45;36.55;101568.84;5093256;28;20684;-51
2022/07/29 09:18:33;;;;;;;5.50;2.75;;;;;;;28.86;38.16;101575.75;5092377;28;20521;-50
2022/07/29 09:24:13;;;;;;;4.00;1.95;;;;;;;29.22;37.46;101576.13;5092511;28;20093;-51
2022/07/29 09:26:44;;;;;;;3.90;2.40;;;;;;;29.52;35.23;101581.72;5073502;28;20043;-50
2022/07/29 09:29:18;;;;;;;4.57;2.60;;;;;;;29.63;34.86;101582.88;5085050;28;20032;-49
2022/07/29 09:31:46;;;;;;;5.45;2.38;;;;;;;29.66;34.61;101582.41;5086829;28;20054;-48
2022/07/29 09:34:14;;;;;;;6.38;2.17;;;;;;;29.71;34.10;101577.94;5080134;28;20524;-52
2022/07/29 09:36:45;;;;;;;6.90;2.40;;;;;;;29.82;33.38;101581.00;5086963;28;20028;-52
2022/07/29 09:39:10;;;;;;;4.88;2.28;;;;;;;29.66;33.23;101586.00;5091187;28;20024;-52
2022/07/29 09:41:50;;;;;;;13.02;2.63;;;;;;;29.83;35.07;101585.44;5072857;28;20393;-51
2022/07/29 09:44:16;;;;;;;3.88;2.17;;;;;;;29.86;33.60;101574.00;5089707;28;20027;-53
2022/07/29 09:47:06;;;;;;;6.90;2.08;;;;;;;30.16;34.29;101574.06;5092094;28;20016;-52
2022/07/29 09:49:35;;;;;;;6.28;2.33;;;;;;;30.33;32.82;101582.47;5090195;28;20024;-50
2022/07/29 09:52:04;;;;;;;;;;;;;;;30.87;35.04;101574.31;5092863;28;20127;-52
2022/07/29 09:54:34;;;;;;;11.85;3.65;;;;;;;30.97;31.46;101574.59;5090642;28;19916;-53
2022/07/29 09:56:59;;;;;;;4.18;2.30;;;;;;;30.93;31.66;101569.81;5089571;28;20030;-52
2022/07/29 09:59:26;;;;;;;6.75;1.88;;;;;;;31.19;31.39;101576.78;5079300;28;20036;-52
2022/07/29 10:01:51;;;;;;;6.57;2.30;;;;;;;31.40;29.78;101575.34;5089693;28;20040;-50
2022/07/29 10:04:18;;;;;;;7.18;2.15;;;;;;;31.26;30.07;101572.03;5085864;28;20035;-50
2022/07/29 10:07:04;;;;;;;4.32;1.98;;;;;;;31.53;31.77;101572.38;5079241;28;20553;-49
2022/07/29 10:09:30;;;;;;;6.40;1.90;;;;;;;31.59;30.12;101573.31;5085305;28;20423;-50
2022/07/29 10:12:14;;;;;;;7.15;2.08;;;;;;;31.73;30.49;101571.19;5091914;28;20061;-54
2022/07/29 10:14:40;;;;;;;4.30;1.98;;;;;;;31.62;29.04;101572.84;5086815;28;20396;-47
2022/07/29 10:17:07;;;;;;;4.38;1.60;;;;;;;31.67;28.83;101567.47;5090058;28;20408;-52
2022/07/29 10:19:34;;;;;;;4.05;1.70;;;;;;;31.80;28.85;101573.78;5092319;28;20024;-49
2022/07/29 10:22:00;;;;;;;2.75;1.75;;;;;;;31.94;29.09;101574.34;5074726;28;20031;-52
2022/07/29 10:24:27;;;;;;;7.85;1.95;;;;;;;32.13;29.04;101558.56;5092083;28;20043;-53
2022/07/29 10:26:58;;;;;;;5.80;1.70;;;;;;;32.19;28.46;101574.91;5092767;28;20464;-51
2022/07/29 10:29:24;;;;;;;4.30;1.90;;;;;;;32.22;27.94;101562.56;5092372;28;20096;-52
2022/07/29 10:32:11;;;;;;;6.50;1.92;;;;;;;32.45;27.80;101564.38;5084524;28;20111;-50
2022/07/29 10:34:56;;;;;;;4.90;2.13;;;;;;;32.73;27.76;101559.97;5070574;28;20423;-47
2022/07/29 10:37:44;;;;;;;8.25;2.10;;;;;;;32.92;28.11;101552.28;5094867;28;20043;-47
2022/07/29 10:43:37;;;;;;;4.60;1.92;;;;;;;33.07;27.86;101552.50;5097034;28;20038;-48
2022/07/29 10:46:04;;;;;;;6.70;1.90;;;;;;;32.98;26.83;101546.59;5096595;28;20094;-49
2022/07/29 10:48:29;;;;;;;4.05;1.90;;;;;;;33.27;25.97;101542.94;5095782;28;20081;-50
2022/07/29 10:51:03;;;;;;;8.05;1.70;;;;;;;32.90;25.92;101557.22;5092707;28;20106;-49
2022/07/29 10:53:48;;;;;;;4.07;1.65;;;;;;;33.16;26.41;101548.28;5067055;28;20051;-48
2022/07/29 10:56:23;;;;;;;5.38;1.45;;;;;;;33.15;26.56;101546.63;5091391;28;20047;-50
2022/07/29 10:59:20;;;;;;;5.70;2.13;;;;;;;33.26;28.17;101546.75;5089423;28;20028;-47
2022/07/29 11:01:50;;;;;;;5.22;1.77;;;;;;;33.08;25.98;101547.88;5090730;28;20043;-51
2022/07/29 11:04:38;;;;;;;5.82;1.92;;;;;;;32.90;25.86;101552.53;5090504;28;20465;-50
2022/07/29 11:07:04;;;;;;;10.02;2.15;;;;;;;32.87;26.88;101550.28;5062426;28;20059;-48
2022/07/29 11:09:30;;;;;;;5.97;2.20;;;;;;;32.66;26.81;101557.38;5093959;28;20020;-47
2022/07/29 11:11:56;;;;;;;9.02;2.30;;;;;;;32.62;26.99;101543.25;5092527;28;20123;-47
2022/07/29 11:15:00;;;;;;;3.45;1.80;;;;;;;33.34;27.89;101544.44;5090426;28;20035;-50
2022/07/29 11:17:25;;;;;;;4.68;1.88;;;;;;;33.56;26.65;101541.69;5095408;28;20465;-49
2022/07/29 11:19:51;;;;;;;6.22;2.00;;;;;;;33.11;27.22;101548.19;5095946;28;20038;-49
2022/07/29 11:22:33;;;;;;;3.63;1.80;;;;;;;33.74;27.19;101545.25;5095664;28;20077;-46
2022/07/29 11:25:15;;;;;;;6.07;1.95;;;;;;;33.62;27.17;101545.34;5094020;28;20024;-46
2022/07/29 11:27:41;;;;;;;5.85;1.77;;;;;;;33.34;24.84;101549.09;5091689;28;20095;-48
2022/07/29 11:30:07;;;;;;;3.00;1.60;;;;;;;33.25;26.18;101548.69;5095166;28;20504;-51
2022/07/29 11:32:39;;;;;;;5.97;1.83;;;;;;;33.60;26.55;101544.78;5093688;28;20035;-46
2022/07/29 11:35:14;;;;;;;3.05;1.80;;;;;;;33.43;26.37;101544.00;5094543;28;20568;-46
2022/07/29 11:37:40;;;;;;;5.47;1.63;;;;;;;33.38;25.01;101542.00;5088997;28;20036;-46
2022/07/29 11:40:06;;;;;;;3.17;1.73;;;;;;;33.61;24.40;101543.69;5094105;28;20043;-47